Terminal Aerodrome Forecast
Issued by NWS Atlanta, GA

Home | Current Version | Previous Version | Text Only | Print | Product List | Glossary On
Versions: 1 2 3 4 5 6 7 8 9 10 11 12 13
382
FTUS42 KFFC 241120
TAFMCN
TAF
KMCN 241120Z 2412/2512 VRB03KT 6SM -DZ BR BKN008
     FM241500 30008KT P6SM BKN015
     FM241800 29009KT P6SM VCSH BKN035
     FM250200 32008KT P6SM OVC015=

USA.gov is the U.S. government's official web portal to all federal, state and local government web resources and services.